createdAt,value
2018-08-13T00:03:19.369Z,74.1
2018-08-13T00:08:19.412Z,74.6
2018-08-13T00:13:20.265Z,75.4
2018-08-13T00:18:20.046Z,75.5
2018-08-13T00:23:19.951Z,75.3
2018-08-13T00:28:20.166Z,76.8
2018-08-13T00:33:20.189Z,78.2
2018-08-13T00:38:19.958Z,77.9
2018-08-13T00:43:20.174Z,78.8
2018-08-13T00:48:21.672Z,77.9
2018-08-13T00:53:21.544Z,77.6
2018-08-13T00:58:35.697Z,79.7
2018-08-13T01:03:35.534Z,78.9
2018-08-13T01:08:35.527Z,78.9
2018-08-13T01:13:35.626Z,79.2
2018-08-13T01:18:35.534Z,78
2018-08-13T01:23:35.560Z,79.7
2018-08-13T01:28:35.619Z,79.4
2018-08-13T01:33:36.968Z,78.8
2018-08-13T01:38:36.721Z,79.6
2018-08-13T01:43:51.094Z,79.8
2018-08-13T01:48:50.829Z,79.5
2018-08-13T01:53:56.252Z,79.9
2018-08-13T01:58:56.192Z,79
2018-08-13T02:04:08.071Z,79.6
2018-08-13T02:09:08.043Z,79.2
2018-08-13T02:14:07.959Z,79.4
2018-08-13T02:19:08.015Z,79.9
2018-08-13T02:24:07.820Z,80.7
2018-08-13T02:29:07.819Z,80.3
2018-08-13T02:34:08.006Z,82.2
2018-08-13T02:39:08.091Z,80.5
2018-08-13T02:44:07.893Z,81.5
2018-08-13T02:49:20.374Z,82.6
2018-08-13T02:54:20.344Z,82.2
2018-08-13T02:59:20.215Z,81.2
2018-08-13T03:04:20.348Z,82.4
2018-08-13T03:09:20.241Z,81.4
2018-08-13T03:14:20.270Z,81.7
2018-08-13T03:19:20.495Z,80.9
2018-08-13T03:24:20.302Z,81.8
2018-08-13T03:29:20.461Z,81.7
2018-08-13T03:34:20.497Z,82.5
2018-08-13T03:39:20.312Z,82.3
2018-08-13T03:44:20.312Z,83.7
2018-08-13T03:49:20.297Z,83.4
2018-08-13T03:54:20.314Z,83.3
2018-08-13T03:59:35.423Z,83.1
2018-08-13T04:04:35.353Z,83.3
2018-08-13T04:09:35.387Z,83.1
2018-08-13T04:14:35.309Z,84.7
2018-08-13T04:19:35.355Z,85.3
2018-08-13T04:24:35.224Z,84.9
2018-08-13T04:29:35.271Z,84.2
2018-08-13T04:34:36.074Z,85
2018-08-13T04:39:35.760Z,84.6
2018-08-13T04:44:50.680Z,82.7
2018-08-13T04:49:50.605Z,81.8
2018-08-13T04:54:50.644Z,81.3
2018-08-13T04:59:50.392Z,79.4
2018-08-13T05:04:50.404Z,79.9
2018-08-13T05:09:50.397Z,78.7
2018-08-13T05:14:50.405Z,78
2018-08-13T05:19:50.401Z,76.9
2018-08-13T05:24:50.402Z,77.5
2018-08-13T05:30:02.375Z,77.5
2018-08-13T05:35:01.737Z,77.2
2018-08-13T05:40:01.894Z,75.5
2018-08-13T05:45:02.102Z,75.4
2018-08-13T05:50:01.975Z,74.7
2018-08-13T05:55:01.752Z,74.3
2018-08-13T06:00:01.945Z,76.4
2018-08-13T06:05:05.961Z,74.9
2018-08-13T06:10:05.894Z,75.2
2018-08-13T06:15:15.657Z,74.4
2018-08-13T06:20:15.395Z,72.4
2018-08-13T06:25:15.642Z,70.9
2018-08-13T06:30:15.770Z,71
2018-08-13T06:35:15.597Z,70
2018-08-13T06:40:15.415Z,68.6
2018-08-13T06:45:15.574Z,67.1
2018-08-13T06:50:15.603Z,66.6
2018-08-13T06:55:15.642Z,66.2
2018-08-13T07:00:28.397Z,65.6
2018-08-13T07:05:28.098Z,63.9
2018-08-13T07:10:28.332Z,62.5
2018-08-13T07:15:28.271Z,61.5
2018-08-13T07:20:28.346Z,61.2
2018-08-13T07:25:28.839Z,60.8
2018-08-13T07:30:28.563Z,58.8
2018-08-13T07:35:28.598Z,56.2
2018-08-13T07:40:28.502Z,55.8
2018-08-13T07:45:28.785Z,55.8
2018-08-13T07:50:28.610Z,55.4
2018-08-13T07:55:28.445Z,57.2
2018-08-13T08:00:31.976Z,56.6
2018-08-13T08:05:31.827Z,55.6
2018-08-13T08:10:42.368Z,53.7
2018-08-13T08:15:42.071Z,55
2018-08-13T08:20:42.093Z,56
2018-08-13T08:25:42.242Z,56.5
2018-08-13T08:30:42.300Z,56.2
2018-08-13T08:35:42.128Z,55.6
2018-08-13T08:40:42.271Z,54.4
2018-08-13T08:45:42.444Z,53.4
2018-08-13T08:50:42.162Z,52.4
2018-08-13T08:55:55.121Z,51.3
2018-08-13T09:00:54.842Z,49.6
2018-08-13T09:05:54.991Z,49.5
2018-08-13T09:10:55.061Z,48.5
2018-08-13T09:15:54.864Z,49.6
2018-08-13T09:20:54.861Z,48.5
2018-08-13T09:25:55.043Z,45.9
2018-08-13T09:30:56.851Z,44.3
2018-08-13T09:35:56.759Z,43.7
2018-08-13T09:41:08.988Z,44.1
2018-08-13T09:46:08.915Z,43.1
2018-08-13T09:51:08.718Z,43.1
2018-08-13T09:56:08.873Z,42.6
2018-08-13T10:01:08.965Z,39.8
2018-08-13T10:06:08.669Z,38.8
2018-08-13T10:11:08.885Z,41.3
2018-08-13T10:16:08.913Z,40.5
2018-08-13T10:21:08.945Z,40.1
2018-08-13T10:26:08.868Z,39.7
2018-08-13T10:31:08.722Z,38.6
2018-08-13T10:36:08.956Z,37.9
2018-08-13T10:41:11.972Z,38.1
2018-08-13T10:46:13.253Z,37.9
2018-08-13T10:51:25.028Z,38.4
2018-08-13T10:56:24.964Z,38.1
2018-08-13T11:01:24.745Z,37.1
2018-08-13T11:06:24.753Z,36.7
2018-08-13T11:11:24.964Z,36.7
2018-08-13T11:16:26.951Z,36
2018-08-13T11:21:26.940Z,36.6
2018-08-13T11:26:26.641Z,36.1
2018-08-13T11:31:26.842Z,37
2018-08-13T11:36:26.869Z,36.9
2018-08-13T11:41:26.681Z,34.8
2018-08-13T11:46:27.092Z,34.1
2018-08-13T11:51:32.710Z,34
2018-08-13T11:56:32.671Z,32.8
2018-08-13T12:01:42.020Z,32.7
2018-08-13T12:06:41.730Z,32.4
2018-08-13T12:11:41.883Z,32.4
2018-08-13T12:16:41.879Z,31.9
2018-08-13T12:21:42.547Z,32.5
2018-08-13T12:26:41.865Z,32.4
2018-08-13T12:31:41.886Z,33.4
2018-08-13T12:36:43.223Z,32.7
2018-08-13T12:41:42.923Z,32.5
2018-08-13T12:46:58.078Z,33.4
2018-08-13T12:51:58.003Z,34.6
2018-08-13T12:56:57.969Z,35.3
2018-08-13T13:01:58.024Z,33.3
2018-08-13T13:06:58.019Z,34.8
2018-08-13T13:11:57.823Z,33.5
2018-08-13T13:16:57.965Z,35
2018-08-13T13:21:57.832Z,35.1
2018-08-13T13:26:58.043Z,35.5
2018-08-13T13:31:57.806Z,37.6
2018-08-13T13:36:57.989Z,38.7
2018-08-13T13:41:58.066Z,38.1
2018-08-13T13:46:59.496Z,38.6
2018-08-13T13:51:59.639Z,37.3
2018-08-13T13:57:14.710Z,36.2
2018-08-13T14:02:14.193Z,35.3
2018-08-13T14:07:14.245Z,34.8
2018-08-13T14:12:14.242Z,34.3
2018-08-13T14:17:14.235Z,32.8
2018-08-13T14:22:14.395Z,31.5
2018-08-13T14:27:14.409Z,33.2
2018-08-13T14:32:14.379Z,33.3
2018-08-13T14:37:14.526Z,34.2
2018-08-13T14:42:14.448Z,33.6
2018-08-13T14:47:14.426Z,35.1
2018-08-13T14:52:14.390Z,34.2
2018-08-13T14:57:14.640Z,34.4
2018-08-13T15:02:14.384Z,34.7
2018-08-13T15:07:28.267Z,35.3
2018-08-13T15:12:28.127Z,36
2018-08-13T15:17:28.193Z,36.1
2018-08-13T15:22:28.223Z,36.1
2018-08-13T15:27:28.597Z,37
2018-08-13T15:32:28.005Z,36.6
2018-08-13T15:37:28.037Z,36.6
2018-08-13T15:42:29.097Z,34.7
2018-08-13T15:47:28.842Z,35.4
2018-08-13T15:52:41.278Z,38.3
2018-08-13T15:57:40.970Z,36.7
2018-08-13T16:02:41.012Z,36.3
2018-08-13T16:07:40.974Z,35
2018-08-13T16:12:40.987Z,36.6
2018-08-13T16:17:41.004Z,37.1
2018-08-13T16:22:41.006Z,37.9
2018-08-13T16:27:40.990Z,38.8
2018-08-13T16:32:40.993Z,38.1
2018-08-13T16:37:52.395Z,39.2
2018-08-13T16:42:52.082Z,39.8
2018-08-13T16:47:52.076Z,40
2018-08-13T16:52:52.330Z,40.9
2018-08-13T16:57:52.503Z,40.6
2018-08-13T17:02:52.504Z,40.3
2018-08-13T17:07:52.702Z,40.7
2018-08-13T17:12:57.459Z,42.4
2018-08-13T17:17:57.362Z,42.7
2018-08-13T17:23:07.080Z,43.4
2018-08-13T17:28:07.040Z,44.1
2018-08-13T17:33:07.026Z,44.5
2018-08-13T17:38:07.031Z,44.8
2018-08-13T17:43:07.511Z,45.7
2018-08-13T17:48:06.819Z,47
2018-08-13T17:53:07.051Z,47.2
2018-08-13T17:58:10.989Z,48.7
2018-08-13T18:03:10.774Z,49.5
2018-08-13T18:08:23.641Z,51.4
2018-08-13T18:13:23.401Z,51.8
2018-08-13T18:18:23.412Z,55.4
2018-08-13T18:23:23.345Z,58.9
2018-08-13T18:28:23.455Z,63.2
2018-08-13T18:33:23.363Z,66.4
2018-08-13T18:38:23.394Z,70.1
2018-08-13T18:43:25.979Z,73.3
2018-08-13T18:48:25.675Z,72.5
2018-08-13T18:53:38.431Z,73.8
2018-08-13T18:58:37.660Z,76.1
2018-08-13T19:03:37.695Z,76.7
2018-08-13T19:08:37.734Z,79.2
2018-08-13T19:13:37.692Z,80.4
2018-08-13T19:18:37.808Z,81.3
2018-08-13T19:23:37.860Z,81.3
2018-08-13T19:28:43.096Z,84.5
2018-08-13T19:33:42.763Z,86.3
2018-08-13T19:38:56.278Z,86
2018-08-13T19:43:56.030Z,85.6
2018-08-13T19:48:56.015Z,85.3
2018-08-13T19:53:56.175Z,86.5
2018-08-13T19:58:56.072Z,86.4
2018-08-13T20:03:56.034Z,87.1
2018-08-13T20:08:56.020Z,87.2
2018-08-13T20:13:56.056Z,87
2018-08-13T20:18:56.039Z,89.3
2018-08-13T20:24:07.728Z,88.8
2018-08-13T20:29:07.449Z,89.1
2018-08-13T20:34:07.462Z,90.9
2018-08-13T20:39:07.454Z,90.1
2018-08-13T20:44:07.511Z,90.9
2018-08-13T20:49:07.458Z,93.3
2018-08-13T20:54:07.452Z,91.2
2018-08-13T20:59:07.489Z,91.2
2018-08-13T21:04:07.497Z,90.5
2018-08-13T21:09:19.627Z,89.4
2018-08-13T21:14:19.473Z,90.9
2018-08-13T21:19:19.522Z,91.4
2018-08-13T21:24:19.351Z,88.9
2018-08-13T21:29:19.592Z,89
2018-08-13T21:34:19.347Z,89.1
2018-08-13T21:39:19.562Z,89.3
2018-08-13T21:44:21.635Z,88.7
2018-08-13T21:49:22.924Z,90.7
2018-08-13T21:54:35.253Z,92.3
2018-08-13T21:59:35.304Z,92.8
2018-08-13T22:04:35.183Z,89.8
2018-08-13T22:09:34.950Z,90.1
2018-08-13T22:14:35.151Z,89.7
2018-08-13T22:19:35.184Z,88.5
2018-08-13T22:24:34.975Z,87.9
2018-08-13T22:29:35.291Z,89.8
2018-08-13T22:34:35.183Z,89
2018-08-13T22:39:48.090Z,89.8
2018-08-13T22:44:47.939Z,91
2018-08-13T22:49:47.840Z,91.3
2018-08-13T22:54:48.031Z,91.1
2018-08-13T22:59:47.930Z,90.9
2018-08-13T23:04:47.817Z,92
2018-08-13T23:09:47.827Z,92.3
2018-08-13T23:14:48.263Z,90.6
2018-08-13T23:19:47.829Z,92.5
2018-08-13T23:24:47.994Z,92.3
2018-08-13T23:29:48.202Z,93.1
2018-08-13T23:34:48.581Z,92.5
2018-08-13T23:39:47.888Z,92.3
2018-08-13T23:44:48.041Z,91.1
2018-08-13T23:49:59.941Z,91.4
2018-08-13T23:54:59.670Z,90.9
2018-08-13T23:59:59.663Z,91.9
